Time;durP1;ratioP1;P1;durP2;ratioP2;P2;SDS_P1;SDS_P2;PMS_P1;PMS_P2;Temp;Humidity;BMP_temperature;BMP_pressure;BME280_temperature;BME280_humidity;BME280_pressure;Samples;Min_cycle;Max_cycle;Signal;HPM_P1;HPM_P2
2023/07/06 00:01:41;;;;;;;3.88;2.63;;;;;;;15.81;59.99;98325.09;5059755;28;20380;-73
2023/07/06 00:04:06;;;;;;;5.97;2.60;;;;;;;16.04;59.26;98313.63;5063598;28;20036;-74
2023/07/06 00:06:36;;;;;;;5.63;2.55;;;;;;;15.95;59.14;98319.91;5062364;28;20054;-75
2023/07/06 00:09:02;;;;;;;4.60;2.33;;;;;;;16.17;59.01;98313.06;5065959;28;20032;-75
2023/07/06 00:11:33;;;;;;;6.03;2.50;;;;;;;16.12;59.80;98321.22;5044778;28;20028;-74
2023/07/06 00:13:58;;;;;;;4.70;2.60;;;;;;;16.29;58.24;98310.81;5056641;28;20044;-74
2023/07/06 00:16:24;;;;;;;4.88;2.20;;;;;;;15.95;60.41;98315.28;5050359;28;20029;-75
2023/07/06 00:18:49;;;;;;;3.13;2.40;;;;;;;16.00;59.96;98309.03;5048436;28;20040;-75
2023/07/06 00:21:14;;;;;;;5.07;2.20;;;;;;;16.30;59.29;98317.91;5061801;28;20052;-73
2023/07/06 00:23:43;;;;;;;5.28;2.63;;;;;;;16.04;60.10;98307.38;5057607;28;20036;-73
2023/07/06 00:26:09;;;;;;;4.00;2.70;;;;;;;15.63;60.90;98306.69;5059445;28;20116;-73
2023/07/06 00:28:35;;;;;;;4.05;2.40;;;;;;;15.13;62.90;98319.16;5063661;28;20098;-73
2023/07/06 00:31:10;;;;;;;5.57;2.90;;;;;;;15.12;63.06;98322.94;5062239;28;20534;-74
2023/07/06 00:33:36;;;;;;;3.60;2.50;;;;;;;14.86;63.85;98329.44;5050005;28;20036;-74
2023/07/06 00:36:03;;;;;;;3.42;2.40;;;;;;;15.03;62.90;98324.56;5080418;28;20271;-74
2023/07/06 00:38:28;;;;;;;4.53;2.47;;;;;;;14.79;64.05;98328.06;5056826;28;20052;-74
2023/07/06 00:40:56;;;;;;;4.57;2.47;;;;;;;14.65;64.81;98330.47;5050155;28;20025;-74
2023/07/06 00:43:23;;;;;;;4.13;2.40;;;;;;;14.76;65.25;98329.41;5053071;28;20040;-74
2023/07/06 00:45:56;;;;;;;4.43;3.00;;;;;;;15.02;64.96;98322.13;5069820;28;20032;-74
2023/07/06 00:48:26;;;;;;;4.05;2.58;;;;;;;15.31;64.61;98322.41;5049902;28;20033;-74
2023/07/06 00:51:09;;;;;;;4.93;2.28;;;;;;;14.95;64.85;98319.69;5067886;28;20056;-74
2023/07/06 00:53:37;;;;;;;5.70;2.50;;;;;;;14.99;65.37;98334.31;5060874;28;20047;-74
2023/07/06 00:56:07;;;;;;;5.40;2.35;;;;;;;14.83;66.61;98319.13;5053040;28;20017;-74
2023/07/06 00:58:41;;;;;;;4.32;2.28;;;;;;;15.51;63.68;98334.13;5049892;28;20036;-74
2023/07/06 01:01:08;;;;;;;5.28;2.30;;;;;;;15.75;63.25;98326.22;5070808;28;20028;-75
2023/07/06 01:03:43;;;;;;;4.38;2.40;;;;;;;15.60;63.65;98327.03;5069637;28;20024;-74
2023/07/06 01:06:19;;;;;;;3.72;2.60;;;;;;;15.75;62.70;98320.78;5057736;28;20036;-74
2023/07/06 01:08:50;;;;;;;7.35;2.70;;;;;;;15.85;62.61;98331.59;5055999;28;20029;-74
2023/07/06 01:11:15;;;;;;;4.65;2.38;;;;;;;15.31;64.16;98325.13;5057133;28;20047;-74
2023/07/06 01:13:51;;;;;;;3.95;2.50;;;;;;;15.66;62.61;98312.34;5059938;28;20020;-74
2023/07/06 01:16:32;;;;;;;3.65;2.28;;;;;;;15.76;61.75;98316.97;5062714;28;20033;-74
2023/07/06 01:19:13;;;;;;;6.13;2.53;;;;;;;15.51;62.12;98314.28;5040705;28;20066;-75
2023/07/06 01:22:04;;;;;;;3.17;2.45;;;;;;;15.50;62.11;98318.09;5051071;28;20091;-75
2023/07/06 01:24:41;;;;;;;4.60;2.50;;;;;;;15.33;62.61;98312.09;5056923;28;20116;-74
2023/07/06 01:27:19;;;;;;;3.70;2.30;;;;;;;15.53;62.58;98314.81;5060712;28;20037;-74
2023/07/06 01:30:16;;;;;;;4.03;2.30;;;;;;;15.26;63.60;98311.56;5058159;28;20406;-74
2023/07/06 01:32:48;;;;;;;3.50;2.45;;;;;;;15.47;62.57;98313.22;5066276;28;20063;-74
2023/07/06 01:35:18;;;;;;;5.32;2.80;;;;;;;14.87;64.25;98325.63;5056709;28;20475;-74
2023/07/06 01:37:45;;;;;;;4.68;2.60;;;;;;;14.10;67.01;98324.78;5043340;28;20033;-74
2023/07/06 01:40:11;;;;;;;4.13;2.80;;;;;;;14.03;67.57;98325.03;5073403;28;20038;-72
2023/07/06 01:42:38;;;;;;;4.43;2.60;;;;;;;14.66;65.27;98326.66;5059479;28;20044;-72
2023/07/06 01:45:07;;;;;;;5.82;2.65;;;;;;;15.06;64.38;98323.22;5053068;28;20024;-72
2023/07/06 01:47:36;;;;;;;6.00;2.85;;;;;;;15.18;63.51;98330.00;5056509;28;20043;-72
2023/07/06 01:50:02;;;;;;;5.03;3.00;;;;;;;14.99;63.93;98328.91;5073014;28;20071;-74
2023/07/06 01:52:43;;;;;;;3.75;2.65;;;;;;;14.88;64.71;98329.97;5052958;28;20449;-75
2023/07/06 01:55:21;;;;;;;3.70;3.08;;;;;;;14.55;65.45;98333.16;5052864;28;20036;-74
2023/07/06 01:57:53;;;;;;;5.68;2.70;;;;;;;14.67;65.59;98331.00;5052097;28;20037;-73
2023/07/06 02:00:19;;;;;;;3.40;2.70;;;;;;;14.46;65.42;98332.84;5049352;28;20082;-74
2023/07/06 02:02:48;;;;;;;5.40;2.80;;;;;;;14.88;64.47;98338.13;5052689;28;20025;-74
2023/07/06 02:05:14;;;;;;;4.95;2.97;;;;;;;15.08;63.70;98338.13;5053038;28;20033;-74
2023/07/06 02:07:40;;;;;;;4.55;2.80;;;;;;;15.02;63.82;98333.81;5060585;28;20474;-74
2023/07/06 02:10:06;;;;;;;6.57;3.10;;;;;;;14.92;64.24;98328.34;5052889;28;20036;-73
2023/07/06 02:12:31;;;;;;;6.13;2.92;;;;;;;14.72;64.49;98333.75;5065785;28;20025;-75
2023/07/06 02:14:58;;;;;;;4.32;2.80;;;;;;;14.97;63.63;98336.50;5065785;28;20039;-76
2023/07/06 02:17:23;;;;;;;4.90;3.17;;;;;;;15.04;63.13;98337.06;5065742;28;20116;-71
2023/07/06 02:19:50;;;;;;;4.65;2.97;;;;;;;14.72;64.67;98344.59;5065529;28;20478;-71
2023/07/06 02:22:17;;;;;;;4.75;2.92;;;;;;;14.74;64.36;98342.41;5041989;28;20036;-70
2023/07/06 02:24:44;;;;;;;4.32;3.05;;;;;;;14.44;65.72;98326.88;5059391;28;20033;-71
2023/07/06 02:27:10;;;;;;;4.38;2.60;;;;;;;14.50;65.21;98333.13;5052159;28;20029;-70
2023/07/06 02:29:36;;;;;;;5.75;3.00;;;;;;;14.56;65.10;98345.63;5066729;28;20039;-70
2023/07/06 02:32:02;;;;;;;5.55;2.92;;;;;;;14.65;64.88;98346.72;5035238;28;20395;-71
2023/07/06 02:34:28;;;;;;;3.47;2.35;;;;;;;14.48;64.92;98333.41;5052027;28;20032;-71
2023/07/06 02:36:54;;;;;;;4.78;2.95;;;;;;;14.64;64.84;98336.97;5058554;28;20498;-71
2023/07/06 02:39:23;;;;;;;3.75;2.45;;;;;;;14.23;65.76;98330.56;5055329;28;20036;-69
2023/07/06 02:41:53;;;;;;;5.15;2.60;;;;;;;13.75;67.20;98347.88;5058798;28;20104;-73
2023/07/06 02:44:19;;;;;;;4.38;2.88;;;;;;;13.88;66.69;98333.88;5054219;28;20049;-72
2023/07/06 02:46:46;;;;;;;5.32;2.75;;;;;;;14.18;66.37;98333.25;5035480;28;20024;-72
2023/07/06 02:49:12;;;;;;;3.90;2.22;;;;;;;14.44;65.70;98334.19;5048768;28;20415;-73
2023/07/06 02:51:38;;;;;;;5.25;2.92;;;;;;;14.24;65.83;98334.88;5063414;28;20047;-72
2023/07/06 02:54:03;;;;;;;5.63;2.42;;;;;;;14.31;65.67;98326.53;5066436;28;20033;-73
2023/07/06 02:56:29;;;;;;;4.40;2.53;;;;;;;14.30;65.36;98335.75;5063707;28;20051;-72
2023/07/06 02:58:54;;;;;;;5.18;2.83;;;;;;;14.34;65.55;98331.44;5052843;28;20052;-73
2023/07/06 03:01:20;;;;;;;5.07;2.90;;;;;;;14.27;65.49;98331.66;5055196;28;20021;-73
2023/07/06 03:03:45;;;;;;;3.65;2.40;;;;;;;14.07;65.89;98323.41;5059239;28;20036;-73
2023/07/06 03:06:12;;;;;;;4.65;2.70;;;;;;;14.23;65.18;98329.75;5051547;28;20398;-74
2023/07/06 03:08:40;;;;;;;5.40;2.90;;;;;;;14.48;64.37;98343.41;5064846;28;20048;-73
2023/07/06 03:11:05;;;;;;;3.13;2.42;;;;;;;14.39;65.12;98334.16;5059750;28;20024;-72
2023/07/06 03:13:31;;;;;;;3.95;2.20;;;;;;;14.48;64.48;98340.72;5071221;28;20025;-73
2023/07/06 03:15:57;;;;;;;4.10;2.40;;;;;;;14.55;63.82;98338.56;5064400;28;20137;-74
2023/07/06 03:18:26;;;;;;;3.67;2.17;;;;;;;14.66;64.33;98332.09;5052987;28;20041;-73
2023/07/06 03:20:51;;;;;;;5.47;2.50;;;;;;;13.88;66.08;98333.09;5071289;28;20039;-72
2023/07/06 03:23:18;;;;;;;3.45;2.33;;;;;;;13.46;67.19;98335.78;5069102;28;20044;-72
2023/07/06 03:25:43;;;;;;;6.60;2.90;;;;;;;13.50;68.21;98346.91;5042788;28;20024;-75
2023/07/06 03:28:09;;;;;;;5.43;2.42;;;;;;;13.68;66.95;98336.47;5057813;28;20482;-75
2023/07/06 03:30:34;;;;;;;5.53;2.63;;;;;;;13.81;66.33;98338.75;5053913;28;20467;-75
2023/07/06 03:33:00;;;;;;;3.58;2.13;;;;;;;13.92;66.11;98339.59;5070600;28;20031;-71
2023/07/06 03:35:26;;;;;;;4.20;2.55;;;;;;;13.34;68.77;98351.38;5059211;28;20385;-72
2023/07/06 03:37:55;;;;;;;4.88;2.97;;;;;;;13.54;68.12;98346.13;5053270;28;20052;-71
2023/07/06 03:40:20;;;;;;;3.47;2.45;;;;;;;13.70;67.82;98342.44;5064034;28;20025;-72
2023/07/06 03:42:47;;;;;;;3.13;2.15;;;;;;;13.67;68.22;98348.41;5046297;28;20067;-71
2023/07/06 03:45:13;;;;;;;4.35;2.65;;;;;;;14.13;66.82;98351.34;5060589;28;20020;-71
2023/07/06 03:47:42;;;;;;;4.78;2.97;;;;;;;14.03;66.27;98354.00;5058229;28;20045;-74
2023/07/06 03:50:09;;;;;;;4.57;2.63;;;;;;;14.07;66.92;98352.41;5040654;28;20047;-73
2023/07/06 03:52:39;;;;;;;5.03;3.80;;;;;;;13.75;66.67;98361.41;5053933;28;20056;-74
2023/07/06 03:55:05;;;;;;;6.60;3.63;;;;;;;13.08;68.88;98360.34;5063191;28;20108;-73
2023/07/06 03:57:31;;;;;;;7.93;4.60;;;;;;;13.52;67.73;98353.69;5065070;28;20044;-73
2023/07/06 03:59:56;;;;;;;5.32;4.07;;;;;;;13.82;66.85;98353.88;5051964;28;20021;-73
2023/07/06 04:02:22;;;;;;;4.65;4.13;;;;;;;13.76;66.93;98351.41;5049997;28;20028;-74
2023/07/06 04:04:47;;;;;;;5.65;3.70;;;;;;;13.99;66.74;98366.44;5070315;28;20028;-75
2023/07/06 04:07:13;;;;;;;6.28;3.95;;;;;;;14.05;65.79;98354.56;5056911;28;20032;-73
2023/07/06 04:09:38;;;;;;;8.00;4.30;;;;;;;14.21;65.63;98364.41;5060740;28;20041;-73
2023/07/06 04:12:05;;;;;;;6.13;3.90;;;;;;;14.47;64.68;98358.03;5063635;28;20551;-74
2023/07/06 04:14:31;;;;;;;7.43;3.70;;;;;;;14.47;64.81;98358.84;5061219;28;20025;-75
2023/07/06 04:16:56;;;;;;;5.55;4.22;;;;;;;14.42;64.67;98360.75;5056957;28;20048;-75
2023/07/06 04:19:25;;;;;;;7.05;4.32;;;;;;;14.41;64.70;98361.81;5061612;28;20071;-75
2023/07/06 04:21:51;;;;;;;5.25;3.72;;;;;;;14.46;65.41;98361.84;5067046;28;20036;-75
2023/07/06 04:24:17;;;;;;;5.47;4.07;;;;;;;14.41;65.21;98359.94;5070210;28;20390;-74
2023/07/06 04:26:45;;;;;;;8.80;4.72;;;;;;;14.52;65.49;98363.47;5050453;28;20120;-75
2023/07/06 04:29:10;;;;;;;7.30;3.95;;;;;;;14.51;65.29;98348.31;5044361;28;20086;-75
2023/07/06 04:31:37;;;;;;;6.72;4.05;;;;;;;14.33;65.65;98362.31;5065904;28;20033;-75
2023/07/06 04:34:03;;;;;;;8.18;4.35;;;;;;;14.20;65.61;98371.72;5050125;28;20028;-75
2023/07/06 04:36:31;;;;;;;5.35;3.80;;;;;;;14.00;66.18;98359.97;5067674;28;20032;-75
2023/07/06 04:38:58;;;;;;;6.22;3.90;;;;;;;13.85;67.96;98372.31;5059704;28;20394;-74
2023/07/06 04:41:25;;;;;;;7.25;3.53;;;;;;;14.05;66.62;98365.41;5064730;28;20033;-73
2023/07/06 04:43:52;;;;;;;5.60;3.83;;;;;;;14.07;67.95;98374.09;5046880;28;20073;-75
2023/07/06 04:46:17;;;;;;;9.90;3.90;;;;;;;13.74;68.70;98378.75;5066074;28;20048;-75
2023/07/06 04:48:44;;;;;;;7.97;4.15;;;;;;;14.00;67.71;98368.91;5050700;28;20025;-76
2023/07/06 04:51:09;;;;;;;5.50;4.03;;;;;;;14.14;67.63;98369.25;5048799;28;20072;-77
2023/07/06 04:53:37;;;;;;;5.75;3.78;;;;;;;14.53;67.09;98362.41;5051152;28;20052;-76
2023/07/06 04:56:03;;;;;;;6.07;3.65;;;;;;;14.93;65.72;98373.38;5067928;28;20035;-76
2023/07/06 04:58:45;;;;;;;5.25;3.92;;;;;;;14.66;66.50;98372.75;5059485;28;20047;-76
2023/07/06 05:01:19;;;;;;;6.28;3.67;;;;;;;14.88;65.49;98365.22;5040224;28;20503;-77
2023/07/06 05:03:45;;;;;;;5.78;3.35;;;;;;;15.24;63.98;98368.78;5050584;28;20044;-74
2023/07/06 05:06:12;;;;;;;8.38;3.78;;;;;;;15.33;65.75;98366.38;5062214;28;20029;-74
2023/07/06 05:08:44;;;;;;;7.80;4.28;;;;;;;15.77;64.47;98367.50;5034133;28;20029;-76
2023/07/06 05:11:10;;;;;;;5.40;3.60;;;;;;;15.91;63.16;98368.56;5069469;28;20036;-76
2023/07/06 05:13:36;;;;;;;8.05;3.75;;;;;;;16.06;62.02;98376.66;5046184;28;20017;-75
2023/07/06 05:16:01;;;;;;;5.43;3.10;;;;;;;16.24;61.19;98372.56;5043690;28;20025;-75
2023/07/06 05:18:29;;;;;;;4.93;2.95;;;;;;;16.35;59.94;98372.25;5051115;28;20471;-75
2023/07/06 05:20:56;;;;;;;5.45;3.78;;;;;;;16.55;59.97;98374.09;5060998;28;20029;-76
2023/07/06 05:23:23;;;;;;;4.88;3.20;;;;;;;16.79;58.11;98379.69;5048277;28;20489;-75
2023/07/06 05:25:53;;;;;;;5.53;3.20;;;;;;;16.85;57.95;98373.16;5060744;28;20059;-74
2023/07/06 05:28:20;;;;;;;5.82;3.38;;;;;;;16.54;57.96;98372.47;5046156;28;20085;-75
2023/07/06 05:30:46;;;;;;;4.43;1.88;;;;;;;16.76;58.40;98374.81;5058595;28;20079;-75
2023/07/06 05:33:12;;;;;;;7.55;2.80;;;;;;;16.82;57.93;98373.69;5069223;28;20095;-75
2023/07/06 05:35:38;;;;;;;4.63;1.90;;;;;;;16.91;58.93;98378.28;5061323;28;20029;-75
2023/07/06 05:38:03;;;;;;;3.75;2.08;;;;;;;16.87;57.97;98371.78;5064631;28;20071;-74
2023/07/06 05:40:29;;;;;;;4.20;3.15;;;;;;;17.00;57.73;98381.22;5058334;28;20448;-76
2023/07/06 05:42:54;;;;;;;5.40;3.47;;;;;;;17.31;57.52;98382.66;5065642;28;20433;-75
2023/07/06 05:45:20;;;;;;;5.35;3.13;;;;;;;17.13;57.32;98384.13;5059301;28;20039;-76
2023/07/06 05:47:46;;;;;;;4.63;3.47;;;;;;;17.38;57.82;98394.03;5048966;28;20124;-76
2023/07/06 05:50:12;;;;;;;5.30;3.17;;;;;;;17.51;57.12;98385.25;5059183;28;20033;-76
2023/07/06 05:52:38;;;;;;;8.80;3.45;;;;;;;17.41;56.72;98388.00;5055790;28;20020;-76
2023/07/06 05:55:04;;;;;;;8.15;3.45;;;;;;;17.61;55.72;98396.06;5061780;28;20055;-74
2023/07/06 05:57:29;;;;;;;6.93;3.95;;;;;;;17.81;55.60;98398.63;5065818;28;20116;-74
2023/07/06 05:59:55;;;;;;;9.40;3.85;;;;;;;18.13;54.17;98394.50;5063312;28;20087;-76
2023/07/06 06:02:20;;;;;;;4.75;2.85;;;;;;;18.10;54.37;98406.81;5056078;28;20035;-76
2023/07/06 06:04:47;;;;;;;7.55;3.45;;;;;;;18.41;53.70;98401.84;5063149;28;20475;-77
2023/07/06 06:07:13;;;;;;;5.93;3.08;;;;;;;18.46;54.47;98399.88;5049494;28;20491;-76
2023/07/06 06:09:39;;;;;;;5.40;3.20;;;;;;;18.62;53.89;98406.00;5062077;28;20075;-76
2023/07/06 06:12:05;;;;;;;5.72;3.00;;;;;;;18.50;54.28;98405.59;5072560;28;20028;-76
2023/07/06 06:14:31;;;;;;;4.88;2.35;;;;;;;18.48;54.70;98407.81;5062903;28;20033;-76
2023/07/06 06:17:00;;;;;;;3.65;2.53;;;;;;;18.30;53.38;98414.75;5051249;28;20056;-76
2023/07/06 06:19:26;;;;;;;7.93;3.00;;;;;;;18.71;53.35;98406.16;5046507;28;20036;-76
2023/07/06 06:21:53;;;;;;;6.60;2.92;;;;;;;18.55;53.77;98409.06;5072449;28;20390;-76
2023/07/06 06:24:18;;;;;;;7.20;3.05;;;;;;;18.60;53.26;98414.44;5063532;28;20033;-76
2023/07/06 06:26:44;;;;;;;5.30;3.13;;;;;;;18.57;53.82;98408.78;5066913;28;20024;-75
2023/07/06 06:29:09;;;;;;;6.03;3.00;;;;;;;19.21;51.80;98414.47;5061850;28;20041;-76
2023/07/06 06:31:42;;;;;;;4.85;3.42;;;;;;;19.56;50.93;98412.34;5058638;28;20028;-76
2023/07/06 06:34:08;;;;;;;6.85;3.60;;;;;;;19.16;50.92;98425.47;5071942;28;20140;-76
2023/07/06 06:36:33;;;;;;;5.93;3.53;;;;;;;19.48;50.98;98415.78;5042111;28;20021;-76
2023/07/06 06:38:59;;;;;;;6.50;3.45;;;;;;;19.87;49.29;98418.97;5072478;28;20037;-76
2023/07/06 06:41:24;;;;;;;5.72;3.25;;;;;;;19.45;51.78;98416.34;5058580;28;20055;-76
2023/07/06 06:43:49;;;;;;;7.57;3.55;;;;;;;19.68;50.30;98416.25;5071746;28;20033;-76
2023/07/06 06:46:15;;;;;;;5.07;3.00;;;;;;;19.80;49.18;98407.59;5055785;28;20608;-76
2023/07/06 06:48:41;;;;;;;8.20;4.05;;;;;;;19.87;49.19;98417.03;5046129;28;20213;-76
2023/07/06 06:51:10;;;;;;;5.75;3.50;;;;;;;20.23;49.34;98417.28;5035374;28;20029;-76
2023/07/06 06:53:40;;;;;;;4.93;3.05;;;;;;;20.51;48.77;98418.13;5055398;28;20048;-76
2023/07/06 06:56:09;;;;;;;5.03;3.60;;;;;;;20.68;47.41;98416.38;5055448;28;20016;-76
2023/07/06 06:58:35;;;;;;;5.78;3.15;;;;;;;20.80;47.24;98415.88;5071812;28;20074;-76
2023/07/06 07:01:06;;;;;;;5.68;3.20;;;;;;;20.19;48.58;98416.19;5049613;28;20061;-77
2023/07/06 07:03:31;;;;;;;4.15;2.97;;;;;;;19.67;49.83;98419.31;5064321;28;20035;-76
2023/07/06 07:06:11;;;;;;;6.55;3.22;;;;;;;19.51;49.10;98426.13;5064340;28;20025;-76
2023/07/06 07:08:47;;;;;;;5.25;3.20;;;;;;;19.21;50.06;98436.31;5058133;28;20029;-76
2023/07/06 07:11:13;;;;;;;5.07;3.20;;;;;;;20.11;49.00;98422.38;5051705;28;20387;-77
2023/07/06 07:13:38;;;;;;;4.85;2.90;;;;;;;20.43;47.99;98422.34;5049812;28;20032;-77
2023/07/06 07:16:05;;;;;;;4.68;2.85;;;;;;;20.49;47.23;98421.13;5043124;28;20036;-76
2023/07/06 07:18:31;;;;;;;4.30;3.10;;;;;;;20.77;47.47;98421.16;5067881;28;20025;-76
2023/07/06 07:20:56;;;;;;;5.20;2.70;;;;;;;21.10;47.59;98420.75;5059828;28;20047;-76
2023/07/06 07:23:23;;;;;;;6.05;2.83;;;;;;;20.97;46.94;98418.00;5056756;28;20024;-76
2023/07/06 07:25:49;;;;;;;6.82;2.47;;;;;;;20.87;45.64;98418.19;5053946;28;20089;-76
2023/07/06 07:28:17;;;;;;;4.07;2.50;;;;;;;20.40;47.28;98420.22;5069649;28;20024;-76
2023/07/06 07:30:46;;;;;;;4.13;2.72;;;;;;;20.03;48.42;98423.06;5044382;28;20040;-76
2023/07/06 07:33:11;;;;;;;4.70;2.72;;;;;;;20.15;47.59;98420.66;5054050;28;20017;-76
2023/07/06 07:35:41;;;;;;;4.72;2.75;;;;;;;20.99;46.63;98418.50;5072241;28;20085;-76
2023/07/06 07:38:06;;;;;;;6.38;2.70;;;;;;;20.82;46.14;98419.13;5057516;28;20036;-76
2023/07/06 07:40:32;;;;;;;4.68;2.67;;;;;;;20.85;46.27;98423.16;5060496;28;20052;-76
2023/07/06 07:42:57;;;;;;;8.65;2.58;;;;;;;20.57;46.65;98422.38;5050842;28;20120;-76
2023/07/06 07:45:23;;;;;;;6.75;2.47;;;;;;;20.19;47.58;98432.59;5052150;28;20028;-76
2023/07/06 07:47:48;;;;;;;4.40;2.50;;;;;;;20.82;46.21;98430.06;5047829;28;20123;-76
2023/07/06 07:50:14;;;;;;;6.47;3.25;;;;;;;21.68;46.47;98420.78;5050913;28;20021;-76
2023/07/06 07:52:40;;;;;;;6.18;3.03;;;;;;;20.86;47.21;98419.31;5067433;28;20072;-76
2023/07/06 07:55:06;;;;;;;6.07;2.67;;;;;;;21.00;46.77;98414.66;5060628;28;20045;-76
2023/07/06 07:57:32;;;;;;;3.88;2.30;;;;;;;20.57;46.19;98428.66;5037607;28;20064;-76
2023/07/06 07:59:57;;;;;;;3.72;2.40;;;;;;;20.67;45.43;98433.13;5070612;28;20494;-76
2023/07/06 08:02:23;;;;;;;5.25;2.50;;;;;;;21.50;45.47;98435.47;5053469;28;20487;-76
2023/07/06 08:04:48;;;;;;;4.13;2.55;;;;;;;21.93;43.43;98428.44;5050344;28;20082;-76
2023/07/06 08:07:14;;;;;;;7.07;2.70;;;;;;;22.16;43.70;98420.16;5066149;28;20036;-75
2023/07/06 08:09:40;;;;;;;3.72;2.28;;;;;;;22.17;43.30;98424.53;5061022;28;20067;-76
2023/07/06 08:12:06;;;;;;;5.75;2.70;;;;;;;21.84;43.59;98430.28;5047058;28;20060;-76
2023/07/06 08:14:42;;;;;;;5.88;2.60;;;;;;;21.66;43.95;98422.19;5059301;28;20035;-76
2023/07/06 08:17:07;;;;;;;6.82;2.42;;;;;;;21.16;42.78;98419.53;5066190;28;20124;-76
2023/07/06 08:19:33;;;;;;;2.83;1.58;;;;;;;20.77;43.78;98426.63;5061110;28;20124;-76
2023/07/06 08:21:59;;;;;;;4.05;1.70;;;;;;;21.65;43.53;98432.38;5053368;28;20044;-76
2023/07/06 08:24:27;;;;;;;4.18;1.70;;;;;;;21.33;43.49;98424.38;5087074;28;20017;-76
2023/07/06 08:26:52;;;;;;;3.47;2.00;;;;;;;21.86;43.60;98421.75;5066808;28;20040;-75
2023/07/06 08:29:18;;;;;;;4.30;2.35;;;;;;;21.86;43.83;98425.31;5062688;28;20039;-75
2023/07/06 08:31:45;;;;;;;5.85;2.28;;;;;;;22.46;42.68;98416.59;5053752;28;20426;-76
2023/07/06 08:34:12;;;;;;;3.80;2.00;;;;;;;22.84;42.44;98419.69;5061299;28;20726;-76
2023/07/06 08:36:37;;;;;;;2.78;1.50;;;;;;;22.09;43.04;98411.56;5049914;28;20037;-76
2023/07/06 08:39:05;;;;;;;3.25;1.75;;;;;;;22.93;41.74;98410.34;5050143;28;20033;-76
2023/07/06 08:41:37;;;;;;;2.92;1.20;;;;;;;22.56;41.65;98408.09;5050368;28;20043;-76
2023/07/06 08:44:03;;;;;;;4.47;1.40;;;;;;;21.88;42.98;98409.34;5053122;28;20028;-75
2023/07/06 08:46:32;;;;;;;9.55;1.30;;;;;;;22.31;41.97;98425.28;5050186;28;20025;-76
2023/07/06 08:48:58;;;;;;;2.55;1.55;;;;;;;21.68;43.33;98417.25;5046402;28;20094;-76
2023/07/06 08:51:31;;;;;;;3.58;1.63;;;;;;;22.79;42.40;98401.44;5052975;28;20028;-76
2023/07/06 08:54:00;;;;;;;6.68;1.30;;;;;;;22.37;42.27;98416.59;5059430;28;20090;-75
2023/07/06 08:56:27;;;;;;;1.77;1.08;;;;;;;21.80;42.07;98423.78;5026834;28;20044;-76
2023/07/06 08:58:54;;;;;;;3.25;1.10;;;;;;;22.79;41.57;98412.41;5052679;28;20046;-76
2023/07/06 09:01:22;;;;;;;6.35;3.70;;;;;;;22.86;41.54;98423.75;5054705;28;20024;-76
2023/07/06 09:03:51;;;;;;;1.75;1.23;;;;;;;22.36;41.80;98419.63;5064560;28;20498;-75
2023/07/06 09:06:22;;;;;;;1.70;1.20;;;;;;;22.23;41.98;98420.53;5068474;28;20387;-76
2023/07/06 09:08:50;;;;;;;1.70;1.27;;;;;;;22.09;42.89;98414.31;5067336;28;20062;-76
2023/07/06 09:11:17;;;;;;;4.95;1.92;;;;;;;22.94;41.40;98409.22;5033184;28;20029;-76
2023/07/06 09:13:49;;;;;;;3.70;1.40;;;;;;;22.29;41.08;98408.28;5064620;28;20028;-76
2023/07/06 09:16:18;;;;;;;1.83;1.20;;;;;;;23.03;40.55;98401.81;5035602;28;20127;-76
2023/07/06 09:18:43;;;;;;;1.80;1.08;;;;;;;22.33;41.55;98407.38;5045656;28;20025;-75
2023/07/06 09:21:09;;;;;;;1.48;1.20;;;;;;;23.07;40.34;98407.47;5049794;28;20043;-76
2023/07/06 09:23:34;;;;;;;1.52;1.10;;;;;;;22.99;40.15;98406.31;5048381;28;20120;-77
2023/07/06 09:26:05;;;;;;;1.55;1.38;;;;;;;22.62;40.36;98407.66;5068191;28;20051;-76
2023/07/06 09:28:31;;;;;;;4.32;1.23;;;;;;;23.13;39.72;98401.50;5050133;28;20116;-74
2023/07/06 09:31:14;;;;;;;2.35;1.45;;;;;;;23.24;39.34;98408.31;5068176;28;20036;-76
2023/07/06 09:33:44;;;;;;;5.00;2.00;;;;;;;22.60;41.06;98409.09;5043383;28;20044;-76
2023/07/06 09:36:15;;;;;;;4.63;1.20;;;;;;;22.55;40.60;98406.47;5072169;28;20048;-75
2023/07/06 09:38:44;;;;;;;3.65;1.60;;;;;;;22.08;42.58;98413.50;5061803;28;20055;-75
2023/07/06 09:41:24;;;;;;;1.98;1.05;;;;;;;21.82;43.49;98421.53;5061130;28;20115;-76
2023/07/06 09:43:57;;;;;;;5.72;1.65;;;;;;;22.10;42.98;98410.47;5034005;28;20375;-76
2023/07/06 09:46:25;;;;;;;2.15;1.42;;;;;;;22.59;40.99;98407.47;5071847;28;20039;-75
2023/07/06 09:48:51;;;;;;;2.65;1.05;;;;;;;22.17;41.57;98402.59;5060815;28;20450;-75
2023/07/06 09:51:39;;;;;;;1.40;1.13;;;;;;;22.40;40.22;98409.66;5066452;28;20388;-75
2023/07/06 09:54:13;;;;;;;2.83;1.50;;;;;;;23.70;38.62;98393.97;5066264;28;20032;-76
2023/07/06 09:56:38;;;;;;;2.17;1.45;;;;;;;23.42;37.36;98391.88;5062299;28;20032;-75
2023/07/06 09:59:04;;;;;;;1.25;1.00;;;;;;;22.48;39.64;98403.38;5059555;28;20043;-76
2023/07/06 10:01:43;;;;;;;2.45;1.60;;;;;;;23.28;39.47;98398.31;5063411;28;20487;-75
2023/07/06 10:04:29;;;;;;;1.42;1.33;;;;;;;22.48;40.32;98428.06;5065973;28;20033;-75
2023/07/06 10:07:05;;;;;;;2.70;1.27;;;;;;;22.80;40.41;98414.03;5049470;28;20036;-75
2023/07/06 10:09:38;;;;;;;2.78;1.05;;;;;;;22.18;40.60;98417.91;5062788;28;20371;-75
2023/07/06 10:12:41;;;;;;;1.75;1.30;;;;;;;22.15;39.69;98418.56;5059246;28;20067;-75
2023/07/06 10:15:29;;;;;;;3.22;1.58;;;;;;;21.88;40.30;98414.84;5072613;28;20461;-76
2023/07/06 10:18:05;;;;;;;3.13;1.15;;;;;;;23.13;38.33;98408.94;5039775;28;20403;-76
2023/07/06 10:20:43;;;;;;;2.60;1.05;;;;;;;23.52;37.78;98402.56;5072175;28;20036;-75
2023/07/06 10:23:15;;;;;;;4.05;2.00;;;;;;;23.83;36.75;98397.66;5058879;28;20404;-76
2023/07/06 10:25:56;;;;;;;4.18;1.83;;;;;;;23.80;34.51;98393.66;5073624;28;20037;-76
2023/07/06 10:28:33;;;;;;;1.63;1.30;;;;;;;23.92;34.01;98384.72;5068400;28;20044;-75
2023/07/06 10:31:03;;;;;;;2.13;1.40;;;;;;;24.39;34.99;98400.16;5064629;28;20113;-76
2023/07/06 10:33:43;;;;;;;2.83;1.48;;;;;;;23.94;34.79;98398.97;5042175;28;20085;-75
2023/07/06 10:36:11;;;;;;;2.80;1.35;;;;;;;23.21;36.29;98397.97;5070898;28;20040;-75
2023/07/06 10:38:36;;;;;;;5.90;1.55;;;;;;;23.56;36.17;98406.25;5043835;28;20025;-75
2023/07/06 10:41:09;;;;;;;4.93;1.40;;;;;;;24.58;33.93;98400.56;5057265;28;20037;-75
2023/07/06 10:43:37;;;;;;;2.45;1.30;;;;;;;24.63;33.37;98388.56;5071078;28;20033;-75
2023/07/06 10:46:32;;;;;;;3.67;1.70;;;;;;;24.87;32.79;98388.00;5071942;28;20021;-76
2023/07/06 10:49:20;;;;;;;6.03;1.40;;;;;;;24.97;33.26;98382.09;5055254;28;20510;-75
2023/07/06 10:51:55;;;;;;;1.55;1.15;;;;;;;25.24;32.70;98401.69;5041532;28;20060;-76
2023/07/06 10:54:20;;;;;;;3.65;1.23;;;;;;;24.35;33.57;98399.22;5051848;28;20048;-75
2023/07/06 10:57:00;;;;;;;1.85;1.33;;;;;;;24.49;34.36;98394.28;5062360;28;20032;-75
2023/07/06 10:59:34;;;;;;;1.65;1.25;;;;;;;24.71;33.12;98390.47;5049927;28;20095;-76
2023/07/06 11:02:08;;;;;;;1.95;1.38;;;;;;;24.92;33.21;98390.56;5062127;28;20098;-76
2023/07/06 11:04:40;;;;;;;1.98;1.23;;;;;;;23.17;35.30;98410.75;5063269;28;20041;-75
2023/07/06 11:07:10;;;;;;;2.17;1.55;;;;;;;24.26;34.02;98401.19;5053968;28;20036;-76
2023/07/06 11:10:13;;;;;;;2.47;1.10;;;;;;;24.85;33.63;98387.53;5061903;28;20048;-75
2023/07/06 11:12:53;;;;;;;3.42;1.33;;;;;;;25.44;32.26;98386.31;5059268;28;20043;-76
2023/07/06 11:15:21;;;;;;;2.13;1.15;;;;;;;25.28;32.76;98377.00;5049730;28;20036;-75
2023/07/06 11:17:48;;;;;;;2.70;1.45;;;;;;;25.74;31.31;98389.81;5060408;28;20024;-75
2023/07/06 11:20:22;;;;;;;2.25;1.27;;;;;;;26.07;29.86;98393.38;5057117;28;20112;-75
2023/07/06 11:22:51;;;;;;;1.70;1.30;;;;;;;25.29;31.61;98376.69;5056275;28;20095;-75
2023/07/06 11:25:19;;;;;;;2.08;1.48;;;;;;;24.73;31.39;98372.47;5060393;28;20059;-75
2023/07/06 11:27:48;;;;;;;1.73;0.93;;;;;;;23.49;33.92;98400.44;5050908;28;20372;-76
2023/07/06 11:30:39;;;;;;;3.30;1.38;;;;;;;25.64;31.16;98380.00;5051062;28;20027;-75
2023/07/06 11:33:25;;;;;;;4.13;1.83;;;;;;;25.18;30.17;98389.25;5067734;28;20024;-76
2023/07/06 11:35:58;;;;;;;3.58;1.55;;;;;;;25.26;28.53;98387.56;5061488;28;20054;-76
2023/07/06 11:38:50;;;;;;;2.13;1.40;;;;;;;25.12;30.47;98384.25;5052927;28;20624;-76
2023/07/06 11:41:31;;;;;;;4.03;1.73;;;;;;;25.30;29.66;98374.72;5057688;28;20056;-76
2023/07/06 11:44:08;;;;;;;1.85;1.27;;;;;;;26.44;27.91;98381.28;5062163;28;20032;-76